createdAt,value
2018-12-10T00:04:35.639Z,4.37
2018-12-10T00:09:39.597Z,5.60
2018-12-10T00:14:43.545Z,1.43
2018-12-10T00:19:47.471Z,2.93
2018-12-10T00:24:51.501Z,5.73
2018-12-10T00:29:55.910Z,4.27
2018-12-10T00:35:00.018Z,1.20
2018-12-10T00:40:04.807Z,2.40
2018-12-10T00:45:08.882Z,2.80
2018-12-10T00:50:12.812Z,4.30
2018-12-10T00:55:16.740Z,6.27
2018-12-10T01:00:20.870Z,3.53
2018-12-10T01:05:24.762Z,2.50
2018-12-10T01:10:28.742Z,3.93
2018-12-10T01:15:32.793Z,4.10
2018-12-10T01:20:36.763Z,2.80
2018-12-10T01:25:40.769Z,3.07
2018-12-10T01:30:44.678Z,4.17
2018-12-10T01:35:48.672Z,1.30
2018-12-10T01:40:52.631Z,3.53
2018-12-10T01:45:56.564Z,1.33
2018-12-10T01:51:00.481Z,3.63
2018-12-10T01:56:04.500Z,1.87
2018-12-10T02:01:08.477Z,5.20
2018-12-10T02:06:12.407Z,4.43
2018-12-10T02:11:16.316Z,3.03
2018-12-10T02:16:20.244Z,2.73
2018-12-10T02:21:25.160Z,1.27
2018-12-10T02:26:29.154Z,2.10
2018-12-10T02:31:33.193Z,1.33
2018-12-10T02:41:45.895Z,1.90
2018-12-10T02:46:49.959Z,2.27
2018-12-10T02:51:54.077Z,3.33
2018-12-10T02:56:58.179Z,1.67
2018-12-10T03:02:02.276Z,1.53
2018-12-10T03:07:06.193Z,2.20
2018-12-10T03:12:10.511Z,2.50
2018-12-10T03:17:14.450Z,2.20
2018-12-10T03:22:18.460Z,2.57
2018-12-10T03:27:22.481Z,2.77
2018-12-10T03:32:26.462Z,3.50
2018-12-10T03:37:30.376Z,1.43
2018-12-10T03:42:34.357Z,3.13
2018-12-10T03:47:38.536Z,3.20
2018-12-10T03:52:42.476Z,3.37
2018-12-10T03:57:46.405Z,2.87
2018-12-10T04:02:50.404Z,2.53
2018-12-10T04:07:54.341Z,3.50
2018-12-10T04:12:58.584Z,3.17
2018-12-10T04:18:02.671Z,3.27
2018-12-10T04:23:06.668Z,2.20
2018-12-10T04:28:10.575Z,2.30
2018-12-10T04:33:14.522Z,0.83
2018-12-10T04:38:18.442Z,1.63
2018-12-10T04:43:22.447Z,1.53
2018-12-10T04:48:26.568Z,1.60
2018-12-10T04:53:30.509Z,3.20
2018-12-10T04:58:34.546Z,2.07
2018-12-10T05:03:38.686Z,1.73
2018-12-10T05:08:42.721Z,2.70
2018-12-10T05:13:46.725Z,1.80
2018-12-10T05:18:50.753Z,2.80
2018-12-10T05:23:54.669Z,3.67
2018-12-10T05:28:58.674Z,3.70
2018-12-10T05:34:02.644Z,4.43
2018-12-10T05:39:07.126Z,4.70
2018-12-10T05:44:11.072Z,4.03
2018-12-10T05:49:15.285Z,4.33
2018-12-10T05:54:19.189Z,5.90
2018-12-10T05:59:23.150Z,3.47
2018-12-10T06:06:39.027Z,2.97
2018-12-10T06:11:43.179Z,4.30
2018-12-10T06:16:47.213Z,3.60
2018-12-10T06:21:51.232Z,3.93
2018-12-10T06:26:55.252Z,4.57
2018-12-10T06:31:59.190Z,3.83
2018-12-10T06:37:03.262Z,2.70
2018-12-10T06:42:08.336Z,2.20
2018-12-10T06:47:12.403Z,1.47
2018-12-10T06:52:16.422Z,1.73
2018-12-10T06:57:20.424Z,3.13
2018-12-10T07:02:24.422Z,3.07
2018-12-10T07:07:28.533Z,2.37
2018-12-10T07:12:32.608Z,2.70
2018-12-10T07:17:36.533Z,5.67
2018-12-10T07:22:40.547Z,4.73
2018-12-10T07:27:44.876Z,3.20
2018-12-10T07:32:48.872Z,2.80
2018-12-10T07:37:52.838Z,3.00
2018-12-10T07:42:56.985Z,3.60
2018-12-10T07:48:01.009Z,2.93
2018-12-10T07:53:04.957Z,2.97
2018-12-10T07:58:08.853Z,2.20
2018-12-10T08:03:12.779Z,2.30
2018-12-10T08:08:16.841Z,2.70
2018-12-10T08:13:20.849Z,2.30
2018-12-10T08:18:25.062Z,3.87
2018-12-10T08:23:29.394Z,4.10
2018-12-10T08:28:33.835Z,4.87
2018-12-10T08:33:37.919Z,5.90
2018-12-10T08:38:41.887Z,7.00
2018-12-10T08:43:45.826Z,8.07
2018-12-10T08:48:49.752Z,6.23
2018-12-10T08:53:53.740Z,9.77
2018-12-10T08:58:57.962Z,8.03
2018-12-10T09:04:01.892Z,6.00
2018-12-10T09:09:06.556Z,4.57
2018-12-10T09:14:10.471Z,5.67
2018-12-10T09:19:14.385Z,5.23
2018-12-10T09:24:18.401Z,5.90
2018-12-10T09:29:22.352Z,5.53
2018-12-10T09:34:26.524Z,6.30
2018-12-10T09:39:30.470Z,3.97
2018-12-10T09:44:34.584Z,2.93
2018-12-10T09:49:38.585Z,2.67
2018-12-10T09:54:42.552Z,4.30
2018-12-10T09:59:46.551Z,3.60
2018-12-10T10:04:50.788Z,5.70
2018-12-10T10:09:54.791Z,5.27
2018-12-10T10:14:58.716Z,3.90
2018-12-10T10:20:02.957Z,3.83
2018-12-10T10:25:07.252Z,3.70
2018-12-10T10:30:11.531Z,3.90
2018-12-10T10:35:31.001Z,4.63
2018-12-10T10:40:35.033Z,5.20
2018-12-10T10:45:39.033Z,3.80
2018-12-10T10:50:43.036Z,3.93
2018-12-10T10:55:47.006Z,4.10
2018-12-10T11:01:04.717Z,3.63
2018-12-10T11:06:10.733Z,5.70
2018-12-10T11:11:15.086Z,4.67
2018-12-10T11:16:19.148Z,6.60
2018-12-10T11:21:23.532Z,3.90
2018-12-10T11:26:27.622Z,3.47
2018-12-10T11:31:31.634Z,6.30
2018-12-10T11:36:35.734Z,3.93
2018-12-10T11:41:39.978Z,3.43
2018-12-10T11:46:44.122Z,2.73
2018-12-10T11:51:48.187Z,6.80
2018-12-10T11:56:52.264Z,2.30
2018-12-10T12:01:56.315Z,2.67
2018-12-10T12:07:00.262Z,4.03
2018-12-10T12:12:04.449Z,3.57
2018-12-10T12:17:08.362Z,5.70
2018-12-10T12:22:12.537Z,6.60
2018-12-10T12:27:16.694Z,4.17
2018-12-10T12:32:20.878Z,4.50
2018-12-10T12:37:24.786Z,3.03
2018-12-10T12:42:29.230Z,4.23
2018-12-10T12:47:33.144Z,5.80
2018-12-10T12:52:37.104Z,9.23
2018-12-10T12:57:41.392Z,5.73
2018-12-10T13:02:45.312Z,4.83
2018-12-10T13:07:49.283Z,2.63
2018-12-10T13:12:53.348Z,0.80
2018-12-10T13:17:57.301Z,2.17
2018-12-10T13:23:01.237Z,1.30
2018-12-10T13:28:05.154Z,1.00
2018-12-10T13:33:09.174Z,2.67
2018-12-10T13:38:13.099Z,2.17
2018-12-10T13:43:17.125Z,2.17
2018-12-10T13:48:21.249Z,1.63
2018-12-10T13:53:25.704Z,1.30
2018-12-10T13:58:29.693Z,3.00
2018-12-10T14:03:33.703Z,1.33
2018-12-10T14:08:37.780Z,1.30
2018-12-10T14:13:41.973Z,1.73
2018-12-10T14:18:46.127Z,0.90
2018-12-10T14:23:50.504Z,1.70
2018-12-10T14:28:54.610Z,2.20
2018-12-10T14:34:02.885Z,1.33
2018-12-10T14:39:10.463Z,2.57
2018-12-10T14:44:14.622Z,2.00
2018-12-10T14:49:18.625Z,3.17
2018-12-10T14:54:22.693Z,2.07
2018-12-10T14:59:26.629Z,2.13
2018-12-10T15:04:30.556Z,2.70
2018-12-10T15:09:34.528Z,3.33
2018-12-10T15:14:38.533Z,1.10
2018-12-10T15:19:42.450Z,2.83
2018-12-10T15:24:46.457Z,2.63
2018-12-10T15:29:50.392Z,3.60
2018-12-10T15:34:54.350Z,3.60
2018-12-10T15:39:58.259Z,3.23
2018-12-10T15:45:02.268Z,3.20
2018-12-10T15:50:06.392Z,1.90
2018-12-10T15:55:10.419Z,3.50
2018-12-10T16:00:14.600Z,2.60
2018-12-10T16:05:18.558Z,3.50
2018-12-10T16:10:22.802Z,3.47
2018-12-10T16:15:27.044Z,5.43
2018-12-10T16:20:31.048Z,1.87
2018-12-10T16:25:35.105Z,3.43
2018-12-10T16:30:39.287Z,4.80
2018-12-10T16:35:43.534Z,2.03
2018-12-10T16:40:47.504Z,3.57
2018-12-10T16:45:53.539Z,1.67
2018-12-10T16:50:57.496Z,3.00
2018-12-10T16:56:01.594Z,3.53
2018-12-10T17:01:05.717Z,5.07
2018-12-10T17:06:09.636Z,3.10
2018-12-10T17:11:13.613Z,4.40
2018-12-10T17:16:17.659Z,4.03
2018-12-10T17:21:21.723Z,4.63
2018-12-10T17:26:25.748Z,3.87
2018-12-10T17:31:29.693Z,4.70
2018-12-10T17:36:33.926Z,5.00
2018-12-10T17:41:38.953Z,6.20
2018-12-10T17:46:43.937Z,3.00
2018-12-10T17:51:47.945Z,4.13
2018-12-10T17:56:52.514Z,7.33
2018-12-10T18:01:56.707Z,4.47
2018-12-10T18:07:01.155Z,3.60
2018-12-10T18:12:05.229Z,5.03
2018-12-10T18:17:09.656Z,7.77
2018-12-10T18:22:14.383Z,10.67
2018-12-10T18:27:18.408Z,7.73
2018-12-10T18:32:22.709Z,5.83
2018-12-10T18:37:26.813Z,3.77
2018-12-10T18:42:37.700Z,4.27
2018-12-10T18:47:41.793Z,4.63
2018-12-10T18:52:45.783Z,8.70
2018-12-10T18:57:49.765Z,14.33
2018-12-10T19:02:54.035Z,8.93
2018-12-10T19:07:58.036Z,7.83
2018-12-10T19:13:02.169Z,3.47
2018-12-10T19:18:06.343Z,2.47
2018-12-10T19:23:10.862Z,2.83
2018-12-10T19:28:15.214Z,2.63
2018-12-10T19:33:20.396Z,4.00
2018-12-10T19:38:24.324Z,5.07
2018-12-10T19:43:29.340Z,2.47
2018-12-10T19:48:33.388Z,3.63
2018-12-10T19:53:37.496Z,2.97
2018-12-10T21:13:31.336Z,5.30
2018-12-10T21:18:35.845Z,7.17
2018-12-10T21:23:39.904Z,4.50
2018-12-10T21:28:44.007Z,4.93
2018-12-10T21:33:48.053Z,4.70
2018-12-10T21:38:51.998Z,4.27
2018-12-10T21:43:55.946Z,5.77
2018-12-10T21:49:00.771Z,5.03
2018-12-10T21:54:04.885Z,3.77
2018-12-10T21:59:08.841Z,2.80
2018-12-10T22:04:12.977Z,3.20
2018-12-10T22:09:16.929Z,5.50
2018-12-10T22:14:20.862Z,3.57
2018-12-10T22:19:25.053Z,4.43
2018-12-10T22:24:29.109Z,4.53
2018-12-10T22:29:33.060Z,5.87
2018-12-10T22:34:36.972Z,5.97
2018-12-10T22:39:40.932Z,6.17
2018-12-10T22:44:44.879Z,4.90
2018-12-10T22:49:48.864Z,7.80
2018-12-10T22:54:52.820Z,3.23
2018-12-10T22:59:56.776Z,5.30
2018-12-10T23:05:00.700Z,4.17
2018-12-10T23:10:05.458Z,4.60
2018-12-10T23:15:09.513Z,5.53
2018-12-10T23:20:13.426Z,3.97
2018-12-10T23:25:17.372Z,5.87
2018-12-10T23:30:21.329Z,2.83
2018-12-10T23:35:25.313Z,5.03
2018-12-10T23:40:29.233Z,5.50
2018-12-10T23:45:33.172Z,4.17
2018-12-10T23:50:37.096Z,5.57
2018-12-10T23:55:41.176Z,3.27
